Time;durP1;ratioP1;P1;durP2;ratioP2;P2;SDS_P1;SDS_P2;PMS_P1;PMS_P2;Temp;Humidity;BMP_temperature;BMP_pressure;BME280_temperature;BME280_humidity;BME280_pressure;Samples;Min_cycle;Max_cycle;Signal;HPM_P1;HPM_P2
2022/02/24 00:01:00;;;;;;;10.90;5.75;;;;;;;;;;1795614;80;20976;-63
2022/02/24 00:03:28;;;;;;;15.25;6.30;;;;;;;;;;1793600;80;21071;-63
2022/02/24 00:05:56;;;;;;;10.20;5.08;;;;;;;;;;1796042;80;20961;-63
2022/02/24 00:08:22;;;;;;;8.85;5.03;;;;;;;;;;1794748;80;21086;-64
2022/02/24 00:10:49;;;;;;;9.30;5.03;;;;;;;;;;1795631;80;20980;-64
2022/02/24 00:13:15;;;;;;;8.98;4.60;;;;;;;;;;1791878;80;21614;-64
2022/02/24 00:15:42;;;;;;;9.15;4.50;;;;;;;;;;1784718;80;21012;-64
2022/02/24 00:18:09;;;;;;;11.40;4.72;;;;;;;;;;1783750;80;21056;-64
2022/02/24 00:20:35;;;;;;;12.63;5.40;;;;;;;;;;1784870;80;21003;-63
2022/02/24 00:23:01;;;;;;;8.48;5.22;;;;;;;;;;1783999;80;21042;-63
2022/02/24 00:25:28;;;;;;;8.80;4.62;;;;;;;;;;1770346;80;21031;-63
2022/02/24 00:27:54;;;;;;;9.18;5.05;;;;;;;;;;1778754;80;21000;-63
2022/02/24 00:30:20;;;;;;;9.58;5.60;;;;;;;;;;1780452;80;21512;-63
2022/02/24 00:32:47;;;;;;;7.37;4.33;;;;;;;;;;1782026;80;21043;-63
2022/02/24 00:35:14;;;;;;;8.05;4.62;;;;;;;;;;1784513;80;21062;-63
2022/02/24 00:37:41;;;;;;;8.90;5.17;;;;;;;;;;1784853;80;21046;-63
2022/02/24 00:40:08;;;;;;;8.18;4.50;;;;;;;;;;1784289;80;21008;-63
2022/02/24 00:42:36;;;;;;;9.90;4.92;;;;;;;;;;1738372;82;21568;-64
2022/02/24 00:45:03;;;;;;;9.05;5.25;;;;;;;;;;1701423;83;20982;-63
2022/02/24 00:47:29;;;;;;;10.38;4.67;;;;;;;;;;1694349;83;21040;-63
2022/02/24 00:49:55;;;;;;;9.33;5.33;;;;;;;;;;1783652;80;21046;-63
2022/02/24 00:52:21;;;;;;;8.20;5.28;;;;;;;;;;1784361;80;21073;-64
2022/02/24 00:54:48;;;;;;;9.58;4.83;;;;;;;;;;1784370;79;21098;-63
2022/02/24 00:57:15;;;;;;;8.28;5.05;;;;;;;;;;1780697;80;21071;-63
2022/02/24 00:59:41;;;;;;;11.15;5.45;;;;;;;;;;1773476;80;21019;-64
2022/02/24 01:02:08;;;;;;;11.43;6.15;;;;;;;;;;1784061;80;20968;-64
2022/02/24 01:04:34;;;;;;;11.00;5.85;;;;;;;;;;1776024;80;21514;-62
2022/02/24 01:07:00;;;;;;;11.70;6.35;;;;;;;;;;1782683;80;21201;-62
2022/02/24 01:09:26;;;;;;;12.98;6.78;;;;;;;;;;1782035;80;21021;-63
2022/02/24 01:11:52;;;;;;;15.40;7.47;;;;;;;;;;1784850;80;21018;-64
2022/02/24 01:14:18;;;;;;;11.88;6.45;;;;;;;;;;1783914;80;21028;-64
2022/02/24 01:16:46;;;;;;;13.78;7.62;;;;;;;;;;1774956;80;21031;-64
2022/02/24 01:19:12;;;;;;;13.22;6.40;;;;;;;;;;1784313;80;21000;-63
2022/02/24 01:21:38;;;;;;;13.90;6.70;;;;;;;;;;1784692;80;21026;-64
2022/02/24 01:24:04;;;;;;;11.73;6.20;;;;;;;;;;1783440;80;21555;-63
2022/02/24 01:26:30;;;;;;;11.70;5.97;;;;;;;;;;1779168;80;21044;-63
2022/02/24 01:28:56;;;;;;;10.18;6.17;;;;;;;;;;1776255;80;21012;-64
2022/02/24 01:31:23;;;;;;;12.93;5.92;;;;;;;;;;1775577;80;21554;-63
2022/02/24 01:33:49;;;;;;;10.95;6.17;;;;;;;;;;1782501;80;20995;-64
2022/02/24 01:36:17;;;;;;;14.23;6.53;;;;;;;;;;1784136;80;21026;-63
2022/02/24 01:38:43;;;;;;;10.23;5.60;;;;;;;;;;1779352;80;20982;-63
2022/02/24 01:41:09;;;;;;;11.20;5.78;;;;;;;;;;1778626;80;21050;-63
2022/02/24 01:43:35;;;;;;;10.28;5.62;;;;;;;;;;1777968;80;21546;-63
2022/02/24 01:46:01;;;;;;;10.98;5.47;;;;;;;;;;1777440;80;21007;-64
2022/02/24 01:48:28;;;;;;;9.23;5.08;;;;;;;;;;1784152;80;20920;-64
2022/02/24 01:50:54;;;;;;;12.88;6.20;;;;;;;;;;1771960;80;21026;-64
2022/02/24 01:53:20;;;;;;;10.10;6.03;;;;;;;;;;1780749;80;21552;-64
2022/02/24 01:55:46;;;;;;;14.45;6.45;;;;;;;;;;1777480;79;21030;-64
2022/02/24 01:58:12;;;;;;;12.80;6.05;;;;;;;;;;1775861;80;21551;-64
2022/02/24 02:03:26;;;;;;;20.95;8.30;;;;;;;;;;1744509;79;21673;-63
2022/02/24 02:05:52;;;;;;;17.85;7.85;;;;;;;;;;1749798;81;21013;-63
2022/02/24 02:08:18;;;;;;;17.05;8.65;;;;;;;;;;1751855;82;20989;-64
2022/02/24 02:10:45;;;;;;;23.77;10.15;;;;;;;;;;1750571;81;21016;-64
2022/02/24 02:13:10;;;;;;;20.68;9.50;;;;;;;;;;1752757;81;21056;-65
2022/02/24 02:15:36;;;;;;;26.57;10.40;;;;;;;;;;1751009;82;21020;-64
2022/02/24 02:18:02;;;;;;;17.12;8.10;;;;;;;;;;1745283;82;21103;-63
2022/02/24 02:20:29;;;;;;;17.02;9.10;;;;;;;;;;1749422;81;21495;-64
2022/02/24 02:22:55;;;;;;;16.42;7.83;;;;;;;;;;1754005;81;20965;-66
2022/02/24 02:25:22;;;;;;;18.62;8.73;;;;;;;;;;1748405;82;21109;-65
2022/02/24 02:27:49;;;;;;;18.50;8.90;;;;;;;;;;1745163;82;21048;-64
2022/02/24 02:30:15;;;;;;;15.13;7.37;;;;;;;;;;1746072;81;21059;-64
2022/02/24 02:32:41;;;;;;;12.45;6.75;;;;;;;;;;1753677;81;21531;-64
2022/02/24 02:35:07;;;;;;;12.65;6.87;;;;;;;;;;1748104;82;20975;-64
2022/02/24 02:37:33;;;;;;;18.40;6.87;;;;;;;;;;1754839;82;21036;-64
2022/02/24 02:39:59;;;;;;;16.85;6.83;;;;;;;;;;1745590;82;21001;-63
2022/02/24 02:42:26;;;;;;;12.63;6.40;;;;;;;;;;1789329;79;21081;-64
2022/02/24 02:44:52;;;;;;;12.50;6.55;;;;;;;;;;1786233;79;21024;-64
2022/02/24 02:47:18;;;;;;;11.30;6.47;;;;;;;;;;1782955;80;21005;-64
2022/02/24 02:49:44;;;;;;;12.45;6.45;;;;;;;;;;1783053;79;20969;-64
2022/02/24 02:52:10;;;;;;;11.45;5.30;;;;;;;;;;1782884;80;21012;-64
2022/02/24 02:54:36;;;;;;;15.20;6.22;;;;;;;;;;1787856;79;21551;-64
2022/02/24 02:57:03;;;;;;;9.30;5.40;;;;;;;;;;1787668;80;21036;-64
2022/02/24 02:59:28;;;;;;;15.50;6.22;;;;;;;;;;1785526;80;21456;-63
2022/02/24 03:01:54;;;;;;;8.13;5.30;;;;;;;;;;1785289;80;21124;-64
2022/02/24 03:04:20;;;;;;;11.08;5.45;;;;;;;;;;1785168;78;21005;-64
2022/02/24 03:06:47;;;;;;;9.08;5.45;;;;;;;;;;1785385;80;22217;-65
2022/02/24 03:09:13;;;;;;;11.80;6.28;;;;;;;;;;1785286;79;21052;-64
2022/02/24 03:11:39;;;;;;;13.13;5.80;;;;;;;;;;1788180;79;21507;-64
2022/02/24 03:14:05;;;;;;;9.18;6.20;;;;;;;;;;1783999;79;21018;-65
2022/02/24 03:16:31;;;;;;;15.48;6.78;;;;;;;;;;1788606;79;21512;-64
2022/02/24 03:18:57;;;;;;;10.63;6.15;;;;;;;;;;1785681;79;21054;-64
2022/02/24 03:21:23;;;;;;;10.35;5.00;;;;;;;;;;1786881;80;20989;-67
2022/02/24 03:23:50;;;;;;;12.75;6.90;;;;;;;;;;1785004;80;21521;-64
2022/02/24 03:26:17;;;;;;;10.80;5.95;;;;;;;;;;1784839;79;21539;-63
2022/02/24 03:28:43;;;;;;;10.53;5.72;;;;;;;;;;1791349;79;21016;-63
2022/02/24 03:31:09;;;;;;;10.03;5.58;;;;;;;;;;1788913;79;21023;-64
2022/02/24 03:33:37;;;;;;;14.15;6.83;;;;;;;;;;1785777;79;21499;-65
2022/02/24 03:36:06;;;;;;;22.95;9.60;;;;;;;;;;1781677;79;21053;-65
2022/02/24 03:38:32;;;;;;;15.45;7.08;;;;;;;;;;1783763;79;21870;-65
2022/02/24 03:40:59;;;;;;;14.20;6.80;;;;;;;;;;1785554;79;21261;-66
2022/02/24 03:43:25;;;;;;;10.05;6.00;;;;;;;;;;1789214;79;20958;-67
2022/02/24 03:45:51;;;;;;;11.08;6.40;;;;;;;;;;1784419;79;20977;-65
2022/02/24 03:48:18;;;;;;;16.20;6.50;;;;;;;;;;1790679;79;21008;-63
2022/02/24 03:50:44;;;;;;;13.85;6.95;;;;;;;;;;1791152;79;20997;-64
2022/02/24 03:53:10;;;;;;;11.05;6.05;;;;;;;;;;1787937;79;21052;-63
2022/02/24 03:55:36;;;;;;;9.20;6.47;;;;;;;;;;1790198;79;21029;-64
2022/02/24 03:58:02;;;;;;;11.73;6.25;;;;;;;;;;1785905;78;20996;-63
2022/02/24 04:00:28;;;;;;;14.47;8.25;;;;;;;;;;1802643;79;21003;-63
2022/02/24 04:02:55;;;;;;;13.85;7.25;;;;;;;;;;1791298;79;21046;-65
2022/02/24 04:05:22;;;;;;;16.02;6.75;;;;;;;;;;1787323;79;21042;-63
2022/02/24 04:07:48;;;;;;;11.90;6.17;;;;;;;;;;1783519;79;21563;-64
2022/02/24 04:10:14;;;;;;;10.80;5.95;;;;;;;;;;1786578;79;21009;-63
2022/02/24 04:12:40;;;;;;;10.58;5.78;;;;;;;;;;1787656;79;21544;-63
2022/02/24 04:15:07;;;;;;;12.00;6.33;;;;;;;;;;1784755;80;21526;-63
2022/02/24 04:17:33;;;;;;;11.33;6.45;;;;;;;;;;1783202;80;20990;-66
2022/02/24 04:19:59;;;;;;;13.80;7.30;;;;;;;;;;1781879;79;20971;-66
2022/02/24 04:22:25;;;;;;;19.32;9.93;;;;;;;;;;1784560;80;21596;-64
2022/02/24 04:24:50;;;;;;;20.00;8.13;;;;;;;;;;1787658;79;20999;-65
2022/02/24 04:27:16;;;;;;;23.83;9.85;;;;;;;;;;1790071;79;21135;-69
2022/02/24 04:29:43;;;;;;;15.50;8.23;;;;;;;;;;1737116;82;21255;-73
2022/02/24 04:32:09;;;;;;;21.12;8.93;;;;;;;;;;1744367;82;20992;-71
2022/02/24 04:34:35;;;;;;;17.85;7.60;;;;;;;;;;1748081;80;20986;-74
2022/02/24 04:37:01;;;;;;;16.25;8.55;;;;;;;;;;1745850;80;22037;-74
2022/02/24 04:39:26;;;;;;;13.85;7.35;;;;;;;;;;1745637;81;21117;-73
2022/02/24 04:41:52;;;;;;;12.75;7.05;;;;;;;;;;1748266;80;21058;-73
2022/02/24 04:44:18;;;;;;;16.57;7.12;;;;;;;;;;1709922;82;21028;-73
2022/02/24 04:46:44;;;;;;;17.45;8.45;;;;;;;;;;1707197;83;20981;-73
2022/02/24 04:49:10;;;;;;;18.02;10.03;;;;;;;;;;1747893;80;21032;-73
2022/02/24 04:51:37;;;;;;;18.60;10.23;;;;;;;;;;1745606;82;20970;-73
2022/02/24 04:54:03;;;;;;;20.15;8.90;;;;;;;;;;1748307;81;20970;-73
2022/02/24 04:56:29;;;;;;;16.00;8.33;;;;;;;;;;1745131;81;21006;-73
2022/02/24 04:58:55;;;;;;;15.13;8.20;;;;;;;;;;1741246;82;21009;-73
2022/02/24 05:01:21;;;;;;;16.50;7.90;;;;;;;;;;1739739;82;21037;-73
2022/02/24 05:03:47;;;;;;;18.45;9.75;;;;;;;;;;1737484;82;21033;-73
2022/02/24 05:06:13;;;;;;;17.48;8.23;;;;;;;;;;1737534;82;21033;-73
2022/02/24 05:08:39;;;;;;;13.03;6.85;;;;;;;;;;1740421;82;21014;-74
2022/02/24 05:11:05;;;;;;;13.58;7.17;;;;;;;;;;1737015;82;21030;-73
2022/02/24 05:13:33;;;;;;;14.10;7.42;;;;;;;;;;1736621;82;21017;-73
2022/02/24 05:16:01;;;;;;;11.38;6.55;;;;;;;;;;1732844;82;20994;-73
2022/02/24 05:18:27;;;;;;;10.13;5.85;;;;;;;;;;1741801;82;21002;-72
2022/02/24 05:20:53;;;;;;;8.48;5.62;;;;;;;;;;1737600;82;21534;-71
2022/02/24 05:23:19;;;;;;;9.10;5.47;;;;;;;;;;1741351;82;21668;-72
2022/02/24 05:25:45;;;;;;;9.83;5.62;;;;;;;;;;1738624;82;21016;-73
2022/02/24 05:28:11;;;;;;;8.50;5.25;;;;;;;;;;1742954;82;21033;-73
2022/02/24 05:30:38;;;;;;;9.38;5.33;;;;;;;;;;1738909;82;21481;-72
2022/02/24 05:33:04;;;;;;;9.10;5.30;;;;;;;;;;1739687;82;21025;-72
2022/02/24 05:35:30;;;;;;;9.35;4.95;;;;;;;;;;1741974;82;20985;-72
2022/02/24 05:37:56;;;;;;;11.75;4.83;;;;;;;;;;1743713;82;21029;-72
2022/02/24 05:40:22;;;;;;;8.93;4.80;;;;;;;;;;1737987;82;20919;-72
2022/02/24 05:42:48;;;;;;;8.90;4.78;;;;;;;;;;1737430;82;20974;-72
2022/02/24 05:45:14;;;;;;;8.03;5.20;;;;;;;;;;1740475;82;21005;-72
2022/02/24 05:47:40;;;;;;;9.75;4.65;;;;;;;;;;1742058;82;21041;-73
2022/02/24 05:50:07;;;;;;;7.28;4.60;;;;;;;;;;1744505;82;21001;-72
2022/02/24 05:52:35;;;;;;;8.45;4.72;;;;;;;;;;1741481;82;21170;-73
2022/02/24 05:55:01;;;;;;;8.23;5.42;;;;;;;;;;1741027;82;20954;-72
2022/02/24 05:57:26;;;;;;;10.25;5.95;;;;;;;;;;1736077;82;21010;-72
2022/02/24 05:59:52;;;;;;;12.65;6.85;;;;;;;;;;1735018;82;21001;-72
2022/02/24 06:02:18;;;;;;;15.65;8.53;;;;;;;;;;1742471;82;21090;-72
2022/02/24 06:04:45;;;;;;;15.88;8.98;;;;;;;;;;1741956;82;21025;-71
2022/02/24 06:07:11;;;;;;;15.15;8.25;;;;;;;;;;1734358;82;21016;-73
2022/02/24 06:09:37;;;;;;;18.55;9.23;;;;;;;;;;1784461;80;21030;-72
2022/02/24 06:12:03;;;;;;;17.48;8.48;;;;;;;;;;1785247;80;20992;-72
2022/02/24 06:14:29;;;;;;;18.62;9.70;;;;;;;;;;1784907;80;20961;-73
2022/02/24 06:16:56;;;;;;;16.48;9.18;;;;;;;;;;1785020;80;21031;-71
2022/02/24 06:19:23;;;;;;;15.05;8.23;;;;;;;;;;1784862;80;20933;-72
2022/02/24 06:21:52;;;;;;;15.85;9.05;;;;;;;;;;1784477;80;20988;-72
2022/02/24 06:24:18;;;;;;;15.28;8.00;;;;;;;;;;1784186;80;21003;-73
2022/02/24 06:26:44;;;;;;;13.58;8.35;;;;;;;;;;1784918;80;21046;-73
2022/02/24 06:29:10;;;;;;;15.45;9.05;;;;;;;;;;1784855;80;20947;-73
2022/02/24 06:31:37;;;;;;;11.75;7.47;;;;;;;;;;1784029;80;20964;-72
2022/02/24 06:34:03;;;;;;;11.78;6.53;;;;;;;;;;1784721;80;21037;-72
2022/02/24 06:36:30;;;;;;;10.55;5.50;;;;;;;;;;1783538;80;21276;-71
2022/02/24 06:38:57;;;;;;;11.63;6.37;;;;;;;;;;1784887;80;21411;-72
2022/02/24 06:41:24;;;;;;;11.48;6.45;;;;;;;;;;1784634;80;21002;-73
2022/02/24 06:43:50;;;;;;;10.75;6.00;;;;;;;;;;1784793;80;20925;-72
2022/02/24 06:46:18;;;;;;;8.88;5.58;;;;;;;;;;1784595;80;21043;-73
2022/02/24 06:48:44;;;;;;;10.15;5.97;;;;;;;;;;1784271;80;21046;-72
2022/02/24 06:51:10;;;;;;;9.25;5.28;;;;;;;;;;1784458;80;20984;-73
2022/02/24 06:53:36;;;;;;;10.85;6.60;;;;;;;;;;1784639;80;21508;-71
2022/02/24 06:56:02;;;;;;;13.93;7.40;;;;;;;;;;1756252;82;20996;-72
2022/02/24 06:58:29;;;;;;;12.10;6.25;;;;;;;;;;1775308;80;21045;-71
2022/02/24 07:00:55;;;;;;;12.47;7.05;;;;;;;;;;1783460;80;21010;-72
2022/02/24 07:03:21;;;;;;;12.18;9.00;;;;;;;;;;1784443;79;21086;-72
2022/02/24 07:05:48;;;;;;;14.23;8.53;;;;;;;;;;1785781;80;20999;-74
2022/02/24 07:08:15;;;;;;;16.97;13.48;;;;;;;;;;1784710;80;21029;-73
2022/02/24 07:10:41;;;;;;;16.95;10.70;;;;;;;;;;1783923;80;20971;-72
2022/02/24 07:13:08;;;;;;;11.55;7.75;;;;;;;;;;1784080;80;20996;-72
2022/02/24 07:15:33;;;;;;;11.75;7.28;;;;;;;;;;1783922;80;21051;-71
2022/02/24 07:17:59;;;;;;;11.55;6.28;;;;;;;;;;1783987;80;21031;-71
2022/02/24 07:20:25;;;;;;;10.80;6.25;;;;;;;;;;1783837;80;20971;-72
2022/02/24 07:22:51;;;;;;;9.70;5.53;;;;;;;;;;1782827;80;21003;-73
2022/02/24 07:25:17;;;;;;;9.78;5.37;;;;;;;;;;1783553;80;21090;-73
2022/02/24 07:27:44;;;;;;;11.55;6.45;;;;;;;;;;1781439;79;20994;-73
2022/02/24 07:30:10;;;;;;;10.98;6.47;;;;;;;;;;1784859;79;21003;-71
2022/02/24 07:32:36;;;;;;;10.20;6.03;;;;;;;;;;1781643;79;21006;-72
2022/02/24 07:35:03;;;;;;;9.15;5.00;;;;;;;;;;1780605;80;21472;-72
2022/02/24 07:37:29;;;;;;;9.35;6.47;;;;;;;;;;1784551;80;21067;-72
2022/02/24 07:39:55;;;;;;;10.93;7.35;;;;;;;;;;1783552;80;21043;-72
2022/02/24 07:42:21;;;;;;;10.95;6.12;;;;;;;;;;1784061;79;21569;-73
2022/02/24 07:44:49;;;;;;;11.40;6.92;;;;;;;;;;1777371;80;21059;-71
2022/02/24 07:47:14;;;;;;;9.33;5.97;;;;;;;;;;1785749;79;21031;-71
2022/02/24 07:49:43;;;;;;;11.33;6.20;;;;;;;;;;1786837;79;21015;-71
2022/02/24 07:52:09;;;;;;;12.85;8.13;;;;;;;;;;1779063;79;21044;-72
2022/02/24 07:54:35;;;;;;;15.30;7.42;;;;;;;;;;1783886;79;21044;-71
2022/02/24 07:57:01;;;;;;;13.90;7.92;;;;;;;;;;1781310;79;20996;-71
2022/02/24 07:59:27;;;;;;;17.55;7.83;;;;;;;;;;1785263;79;21017;-71
2022/02/24 08:01:54;;;;;;;17.55;7.95;;;;;;;;;;1784235;79;21046;-71
2022/02/24 08:04:20;;;;;;;14.87;8.28;;;;;;;;;;1785700;80;21564;-71
2022/02/24 08:06:45;;;;;;;14.85;6.60;;;;;;;;;;1779821;80;20964;-71
2022/02/24 08:09:12;;;;;;;14.33;7.08;;;;;;;;;;1779769;80;21019;-71
2022/02/24 08:11:38;;;;;;;12.65;6.45;;;;;;;;;;1784677;80;21057;-73
2022/02/24 08:14:05;;;;;;;9.50;5.92;;;;;;;;;;1795400;79;21058;-71
2022/02/24 08:16:30;;;;;;;8.10;5.53;;;;;;;;;;1783658;79;20998;-72
2022/02/24 08:18:59;;;;;;;9.48;5.42;;;;;;;;;;1780306;80;20964;-72
2022/02/24 08:21:24;;;;;;;8.73;5.22;;;;;;;;;;1777746;80;20983;-73
2022/02/24 08:23:50;;;;;;;8.75;6.03;;;;;;;;;;1784146;79;21026;-72
2022/02/24 08:26:17;;;;;;;8.90;5.45;;;;;;;;;;1787925;79;20997;-72
2022/02/24 08:28:43;;;;;;;10.82;5.72;;;;;;;;;;1782936;80;21022;-72
2022/02/24 08:31:09;;;;;;;8.85;5.28;;;;;;;;;;1779266;80;20993;-72
2022/02/24 08:33:36;;;;;;;7.55;5.50;;;;;;;;;;1781260;80;21060;-71
2022/02/24 08:36:01;;;;;;;9.10;5.85;;;;;;;;;;1784891;80;20982;-71
2022/02/24 08:38:27;;;;;;;11.03;6.45;;;;;;;;;;1784746;80;20977;-70
2022/02/24 08:40:53;;;;;;;10.30;5.65;;;;;;;;;;1784551;80;20998;-72
2022/02/24 08:43:22;;;;;;;8.48;5.37;;;;;;;;;;1783920;80;21545;-73
2022/02/24 08:45:48;;;;;;;8.98;5.42;;;;;;;;;;1784549;80;21002;-72
2022/02/24 08:48:15;;;;;;;8.73;5.05;;;;;;;;;;1784798;80;20937;-72
2022/02/24 08:50:41;;;;;;;6.95;4.90;;;;;;;;;;1784275;80;21014;-71
2022/02/24 08:53:08;;;;;;;6.42;3.72;;;;;;;;;;1784443;80;21507;-73
2022/02/24 08:55:37;;;;;;;8.95;5.60;;;;;;;;;;1785239;80;21042;-73
2022/02/24 08:58:03;;;;;;;10.28;6.70;;;;;;;;;;1784698;80;20986;-73
2022/02/24 09:00:30;;;;;;;7.75;5.20;;;;;;;;;;1780720;79;21034;-72
2022/02/24 09:02:56;;;;;;;8.28;5.75;;;;;;;;;;1779882;79;21018;-71
2022/02/24 09:05:23;;;;;;;8.55;5.65;;;;;;;;;;1779429;80;21016;-71
2022/02/24 09:07:49;;;;;;;8.25;4.90;;;;;;;;;;1757997;80;21026;-71
2022/02/24 09:10:15;;;;;;;9.08;5.95;;;;;;;;;;1756978;81;20985;-71
2022/02/24 09:12:41;;;;;;;8.90;5.25;;;;;;;;;;1751651;81;21547;-71
2022/02/24 09:15:08;;;;;;;9.73;5.87;;;;;;;;;;1754556;81;21024;-71
2022/02/24 09:17:34;;;;;;;8.48;5.17;;;;;;;;;;1755570;81;21122;-72
2022/02/24 09:20:01;;;;;;;7.67;5.17;;;;;;;;;;1755551;81;21492;-70
2022/02/24 09:22:27;;;;;;;8.00;4.90;;;;;;;;;;1755933;81;21016;-71
2022/02/24 09:24:53;;;;;;;8.90;5.50;;;;;;;;;;1756402;81;21071;-70
2022/02/24 09:27:20;;;;;;;7.95;5.53;;;;;;;;;;1756004;81;21570;-70
2022/02/24 09:29:46;;;;;;;8.50;5.90;;;;;;;;;;1759110;80;20984;-69
2022/02/24 09:32:11;;;;;;;8.30;5.45;;;;;;;;;;1759377;80;21035;-70
2022/02/24 09:34:37;;;;;;;7.65;5.60;;;;;;;;;;1755627;81;21024;-69
2022/02/24 09:37:04;;;;;;;6.70;5.00;;;;;;;;;;1756645;81;21075;-70
2022/02/24 09:39:30;;;;;;;8.95;6.12;;;;;;;;;;1755839;81;21480;-70
2022/02/24 09:41:56;;;;;;;7.58;5.42;;;;;;;;;;1755565;81;21043;-70
2022/02/24 09:44:22;;;;;;;7.78;5.05;;;;;;;;;;1756275;81;20995;-69
2022/02/24 09:46:48;;;;;;;8.85;6.05;;;;;;;;;;1755046;81;20973;-71
2022/02/24 09:49:14;;;;;;;7.33;5.55;;;;;;;;;;1758083;81;20973;-71
2022/02/24 09:51:45;;;;;;;9.23;6.00;;;;;;;;;;1758222;81;20972;-72
2022/02/24 09:54:08;;;;;;;7.95;5.53;;;;;;;;;;1757887;81;21031;-72
2022/02/24 09:56:33;;;;;;;9.58;6.00;;;;;;;;;;1753301;81;21503;-72
2022/02/24 09:59:00;;;;;;;9.23;6.05;;;;;;;;;;1753733;81;20991;-71
2022/02/24 10:01:26;;;;;;;8.78;5.92;;;;;;;;;;1753760;80;21055;-71
2022/02/24 10:03:53;;;;;;;6.80;4.40;;;;;;;;;;1752513;82;21542;-71
2022/02/24 10:06:19;;;;;;;8.00;5.00;;;;;;;;;;1770863;79;21519;-72
2022/02/24 10:08:47;;;;;;;7.95;5.95;;;;;;;;;;1754089;80;20977;-75
2022/02/24 10:11:17;;;;;;;8.65;5.42;;;;;;;;;;1776334;81;20984;-72
2022/02/24 10:13:57;;;;;;;7.35;5.15;;;;;;;;;;1781599;80;22133;-72
2022/02/24 10:16:23;;;;;;;9.43;6.05;;;;;;;;;;1719406;81;21563;-72
2022/02/24 10:18:49;;;;;;;7.45;4.92;;;;;;;;;;1776230;81;21003;-72
2022/02/24 10:21:21;;;;;;;7.28;4.75;;;;;;;;;;1776476;80;21500;-72
2022/02/24 10:23:45;;;;;;;7.58;5.20;;;;;;;;;;1775084;80;20987;-71
2022/02/24 10:26:11;;;;;;;10.03;5.75;;;;;;;;;;1777168;79;20967;-72
2022/02/24 10:28:38;;;;;;;8.08;5.30;;;;;;;;;;1776272;81;21000;-72
2022/02/24 10:31:05;;;;;;;8.68;4.47;;;;;;;;;;1776046;81;20976;-72
2022/02/24 10:33:31;;;;;;;8.45;5.85;;;;;;;;;;1773212;81;21015;-72
2022/02/24 10:36:10;;;;;;;8.03;5.05;;;;;;;;;;1775911;81;20957;-71
2022/02/24 10:38:36;;;;;;;7.87;4.97;;;;;;;;;;1776912;79;21060;-71
2022/02/24 10:41:02;;;;;;;8.58;5.50;;;;;;;;;;1778394;79;21545;-71
2022/02/24 10:43:30;;;;;;;6.95;4.45;;;;;;;;;;1773644;81;21157;-71
2022/02/24 10:46:06;;;;;;;9.15;5.72;;;;;;;;;;1774012;81;21023;-71
2022/02/24 10:48:49;;;;;;;8.43;5.42;;;;;;;;;;1775805;80;21020;-71
2022/02/24 10:51:25;;;;;;;10.08;6.25;;;;;;;;;;1774298;81;21519;-73
2022/02/24 10:53:59;;;;;;;10.08;5.92;;;;;;;;;;1778184;80;21043;-73
2022/02/24 10:56:27;;;;;;;7.72;4.97;;;;;;;;;;1774563;81;21010;-73
2022/02/24 10:58:53;;;;;;;8.88;4.70;;;;;;;;;;1772965;81;21004;-73
2022/02/24 11:01:20;;;;;;;8.23;5.60;;;;;;;;;;1775253;79;21117;-71
2022/02/24 11:03:51;;;;;;;7.37;4.80;;;;;;;;;;1775164;81;21499;-71
2022/02/24 11:06:22;;;;;;;7.78;5.37;;;;;;;;;;1779227;79;21574;-71
2022/02/24 11:08:50;;;;;;;8.65;4.70;;;;;;;;;;1782241;79;21001;-72
2022/02/24 11:11:21;;;;;;;6.12;4.72;;;;;;;;;;1784783;80;20956;-71
2022/02/24 11:13:49;;;;;;;7.87;5.37;;;;;;;;;;1782631;79;21059;-72
2022/02/24 11:16:15;;;;;;;6.87;4.55;;;;;;;;;;1743418;81;21081;-72
2022/02/24 11:18:41;;;;;;;6.03;3.87;;;;;;;;;;1788283;79;21038;-72
2022/02/24 11:21:11;;;;;;;5.87;3.92;;;;;;;;;;1786886;79;21025;-72
2022/02/24 11:23:35;;;;;;;7.47;4.87;;;;;;;;;;1791277;79;21003;-72
2022/02/24 11:26:03;;;;;;;6.67;4.60;;;;;;;;;;1783782;80;21549;-72
2022/02/24 11:31:30;;;;;;;6.42;3.92;;;;;;;;;;1877466;74;22747;-72
2022/02/24 11:33:57;;;;;;;5.05;3.55;;;;;;;;;;1857374;76;21071;-72
2022/02/24 11:36:23;;;;;;;6.40;4.05;;;;;;;;;;1857544;76;21035;-70
2022/02/24 11:38:54;;;;;;;6.35;3.90;;;;;;;;;;1871142;76;20981;-72
2022/02/24 11:41:20;;;;;;;7.15;4.42;;;;;;;;;;1851918;76;21028;-70
2022/02/24 11:43:48;;;;;;;6.70;3.95;;;;;;;;;;1870377;75;21480;-70
2022/02/24 11:46:14;;;;;;;10.00;5.58;;;;;;;;;;1864056;76;20970;-72
2022/02/24 11:48:40;;;;;;;8.13;4.90;;;;;;;;;;1865782;76;20964;-72
2022/02/24 11:51:08;;;;;;;6.78;4.37;;;;;;;;;;1842052;76;21083;-71
2022/02/24 11:53:38;;;;;;;6.50;4.12;;;;;;;;;;1849982;76;21031;-71
2022/02/24 11:56:18;;;;;;;7.87;4.62;;;;;;;;;;1867692;76;21499;-71
2022/02/24 11:58:46;;;;;;;6.35;4.60;;;;;;;;;;1860638;76;20988;-72
2022/02/24 12:01:16;;;;;;;7.47;4.10;;;;;;;;;;1854660;76;21567;-72
2022/02/24 12:03:47;;;;;;;5.83;3.75;;;;;;;;;;1777952;80;21557;-72
2022/02/24 12:06:14;;;;;;;5.95;3.95;;;;;;;;;;1760395;81;21007;-72
2022/02/24 12:08:58;;;;;;;7.95;5.45;;;;;;;;;;1801069;79;21036;-71
2022/02/24 12:11:28;;;;;;;10.10;4.95;;;;;;;;;;1772338;80;21016;-73
2022/02/24 12:13:54;;;;;;;9.33;4.67;;;;;;;;;;1769520;80;20987;-72
2022/02/24 12:16:20;;;;;;;8.28;5.30;;;;;;;;;;1803890;79;21497;-72
2022/02/24 12:18:47;;;;;;;6.50;4.12;;;;;;;;;;1799980;78;21072;-72
2022/02/24 12:21:30;;;;;;;8.10;4.33;;;;;;;;;;1779980;79;20961;-71
2022/02/24 12:24:00;;;;;;;8.53;4.70;;;;;;;;;;1801299;78;21072;-73
2022/02/24 12:26:46;;;;;;;7.47;4.62;;;;;;;;;;1809598;78;20969;-72
2022/02/24 12:29:26;;;;;;;11.08;5.62;;;;;;;;;;1791607;78;20960;-72
2022/02/24 12:31:52;;;;;;;9.35;4.85;;;;;;;;;;1809431;78;20993;-72
2022/02/24 12:34:18;;;;;;;8.98;4.45;;;;;;;;;;1799456;77;20989;-72
2022/02/24 12:36:44;;;;;;;7.78;4.17;;;;;;;;;;1808928;77;21008;-73
2022/02/24 12:39:10;;;;;;;9.00;5.22;;;;;;;;;;1821361;77;21021;-72
2022/02/24 12:41:36;;;;;;;8.33;4.60;;;;;;;;;;1778058;80;21043;-72
2022/02/24 12:44:06;;;;;;;7.45;4.70;;;;;;;;;;1795468;77;21559;-71
2022/02/24 12:46:32;;;;;;;7.87;4.28;;;;;;;;;;1754093;81;21079;-73
2022/02/24 12:48:58;;;;;;;5.80;3.90;;;;;;;;;;1784175;79;20996;-72
2022/02/24 12:51:24;;;;;;;6.22;3.80;;;;;;;;;;1783272;79;21111;-73
2022/02/24 12:53:50;;;;;;;8.63;4.80;;;;;;;;;;1774849;80;21008;-72
2022/02/24 12:56:16;;;;;;;7.40;4.72;;;;;;;;;;1773412;80;21075;-73
2022/02/24 12:58:45;;;;;;;7.28;4.58;;;;;;;;;;1772080;79;21064;-73
2022/02/24 13:01:12;;;;;;;8.00;4.00;;;;;;;;;;1802029;79;21013;-74
2022/02/24 13:03:38;;;;;;;6.85;4.30;;;;;;;;;;1802872;79;21005;-73
2022/02/24 13:06:04;;;;;;;7.65;4.65;;;;;;;;;;1770064;79;21090;-73
2022/02/24 13:11:16;;;;;;;6.95;4.00;;;;;;;;;;1767724;80;20960;-72
2022/02/24 13:13:42;;;;;;;7.72;4.08;;;;;;;;;;1781096;79;20996;-72
2022/02/24 13:16:09;;;;;;;10.55;5.80;;;;;;;;;;1773982;80;21024;-73
2022/02/24 13:18:45;;;;;;;8.88;5.53;;;;;;;;;;1803291;79;21031;-74
2022/02/24 13:21:12;;;;;;;7.58;5.83;;;;;;;;;;1798306;79;21070;-74
2022/02/24 13:23:39;;;;;;;6.47;4.20;;;;;;;;;;1791402;79;21071;-72
2022/02/24 13:26:05;;;;;;;8.18;5.80;;;;;;;;;;1777613;79;21042;-72
2022/02/24 13:28:33;;;;;;;8.28;5.60;;;;;;;;;;1774043;79;21508;-72
2022/02/24 13:31:00;;;;;;;8.15;4.83;;;;;;;;;;1759303;80;21636;-72
2022/02/24 13:33:28;;;;;;;6.60;4.47;;;;;;;;;;1769428;79;21018;-72
2022/02/24 13:35:54;;;;;;;9.28;5.25;;;;;;;;;;1776383;79;21096;-71
2022/02/24 13:38:20;;;;;;;7.37;4.15;;;;;;;;;;1778227;79;21128;-72
2022/02/24 13:40:47;;;;;;;17.77;7.75;;;;;;;;;;1775812;79;21218;-72
2022/02/24 13:43:14;;;;;;;12.53;5.47;;;;;;;;;;1773404;79;21047;-73
2022/02/24 13:45:40;;;;;;;14.33;6.72;;;;;;;;;;1777601;79;21002;-74
2022/02/24 13:48:10;;;;;;;25.90;9.80;;;;;;;;;;1785693;79;21005;-73
2022/02/24 13:50:37;;;;;;;17.85;7.33;;;;;;;;;;1771103;79;21084;-71
2022/02/24 13:53:03;;;;;;;22.58;9.50;;;;;;;;;;1781510;79;21033;-70
2022/02/24 13:55:31;;;;;;;13.93;6.25;;;;;;;;;;1773487;79;21049;-73
2022/02/24 13:57:58;;;;;;;13.70;6.65;;;;;;;;;;1776082;79;21611;-71
2022/02/24 14:00:25;;;;;;;17.20;6.33;;;;;;;;;;1747619;79;21085;-69
2022/02/24 14:02:52;;;;;;;14.85;7.30;;;;;;;;;;1778858;79;21056;-70
2022/02/24 14:05:18;;;;;;;10.90;6.95;;;;;;;;;;1779968;79;20966;-70
2022/02/24 14:07:55;;;;;;;8.70;4.95;;;;;;;;;;1782431;79;21519;-69
2022/02/24 14:10:20;;;;;;;8.98;5.25;;;;;;;;;;1776932;79;21049;-71
2022/02/24 14:12:46;;;;;;;8.70;5.08;;;;;;;;;;1771184;81;20994;-68
2022/02/24 14:15:14;;;;;;;11.12;5.80;;;;;;;;;;1774210;79;20979;-71
2022/02/24 14:17:40;;;;;;;8.80;5.62;;;;;;;;;;1782638;79;20997;-69
2022/02/24 14:20:18;;;;;;;7.47;4.80;;;;;;;;;;1777553;79;21041;-70
2022/02/24 14:22:44;;;;;;;8.98;4.83;;;;;;;;;;1773156;79;20942;-71
2022/02/24 14:25:12;;;;;;;10.00;5.65;;;;;;;;;;1774149;79;21104;-70
2022/02/24 14:27:40;;;;;;;6.78;4.80;;;;;;;;;;1774685;79;21033;-72
2022/02/24 14:30:08;;;;;;;8.78;5.70;;;;;;;;;;1777600;79;21085;-70
2022/02/24 14:35:09;;;;;;;10.75;4.70;;;;;;;;;;1783331;80;20984;-71
2022/02/24 14:37:35;;;;;;;8.10;5.72;;;;;;;;;;1762677;81;21033;-70
2022/02/24 14:40:01;;;;;;;8.58;4.53;;;;;;;;;;1792262;80;20938;-71
2022/02/24 14:42:28;;;;;;;11.70;6.37;;;;;;;;;;1790717;78;21532;-70
2022/02/24 14:44:58;;;;;;;8.70;5.05;;;;;;;;;;1789388;78;20957;-71